首页
METAR-TAF:

METAR-TAF

机场 :

巴統國際機場

巴统, 格鲁吉亚

纬度: 41-36-37N, 经度: 041-35-58E, 海拔: 32米

当前天气观测

该预报发布于42分钟前的13:00 UTC
风速5节,风向西转西南
温度 9°C
湿度 71%
气压 1021 hPa
能见度10公里或以上
少量云层高于3200英尺

METAR: UGSB 191300Z 25005KT 9999 FEW032 09/04 Q1021 NOSIG

时间: 17:42 (13:42 UTC)

预报

该预报发布于2小时和42分钟前的11:00 UTC
预报有效从19日的 12点(UTC)到 20日的 12点(UTC)
风速7节,风向西南
能见度10公里或以上
少量云层高于3000英尺
散云层高于10000英尺
成为
从 19日的 14点(UTC)到 19日的 17点(UTC)
风速14节,风向东南
成为
从 20日的 08点(UTC)到 20日的 10点(UTC)
风速7节,风向西
散云层高于2500英尺
多云层高于8000英尺

TAF: UGSB 191100Z 1912/2012 23007KT 9999 FEW030 SCT100 TX10/1912Z TN03/2000Z BECMG 1914/1917 13014KT BECMG 2008/2010 28007KT SCT025 BKN080

超过4000个机场的气象观测和天气预报(METAR&TAF报告)。

可查询的气象台以黄色和红色小点在地图上表示。

将鼠标移到小点上方,可查看气象台名称。

然后点击查看天气观测和预报。

如需切换地图:点击带黑十字的绿色按钮放大地图;点击带横线的绿色按钮缩小地图;或者点击绿色箭头查看邻近地区的地图。


METAR-TAF: